createdAt,value
2023-06-02T00:00:43.645Z,100189.81
2023-06-02T00:03:10.489Z,100184.56
2023-06-02T00:05:38.694Z,100184.78
2023-06-02T00:08:05.648Z,100189.09
2023-06-02T00:10:32.347Z,100186.91
2023-06-02T00:12:59.033Z,100186.78
2023-06-02T00:15:25.912Z,100175.72
2023-06-02T00:17:52.600Z,100178.91
2023-06-02T00:20:19.279Z,100181.16
2023-06-02T00:22:47.615Z,100179.88
2023-06-02T00:25:14.319Z,100174.16
2023-06-02T00:27:41.140Z,100181.50
2023-06-02T00:30:08.916Z,100181.66
2023-06-02T00:32:35.600Z,100173.22
2023-06-02T00:35:02.495Z,100173.09
2023-06-02T00:37:29.218Z,100178.06
2023-06-02T00:39:57.253Z,100182.19
2023-06-02T00:42:23.953Z,100174.88
2023-06-02T00:44:50.700Z,100188.28
2023-06-02T00:47:17.328Z,100179.44
2023-06-02T00:49:44.117Z,100187.53
2023-06-02T00:52:11.741Z,100188.31
2023-06-02T00:54:38.324Z,100178.59
2023-06-02T00:57:07.233Z,100185.78
2023-06-02T00:59:34.028Z,100178.88
2023-06-02T01:02:00.655Z,100179.34
2023-06-02T01:04:27.685Z,100186.75
2023-06-02T01:06:56.334Z,100176.72
2023-06-02T01:09:23.141Z,100177.00
2023-06-02T01:11:51.024Z,100177.00
2023-06-02T01:14:19.209Z,100188.63
2023-06-02T01:16:45.927Z,100184.91
2023-06-02T01:19:13.358Z,100177.72
2023-06-02T01:21:41.961Z,100167.09
2023-06-02T01:24:10.064Z,100171.09
2023-06-02T01:26:36.704Z,100175.75
2023-06-02T01:29:03.875Z,100167.16
2023-06-02T01:31:35.035Z,100169.81
2023-06-02T01:34:09.672Z,100162.13
2023-06-02T01:36:38.700Z,100174.41
2023-06-02T01:39:07.504Z,100168.34
2023-06-02T01:41:41.368Z,100174.41
2023-06-02T01:44:08.753Z,100173.19
2023-06-02T01:46:35.513Z,100168.53
2023-06-02T01:49:02.231Z,100174.97
2023-06-02T01:51:28.798Z,100168.34
2023-06-02T01:53:55.598Z,100164.66
2023-06-02T01:56:22.248Z,100166.41
2023-06-02T01:58:50.248Z,100159.78
2023-06-02T02:01:17.008Z,100168.41
2023-06-02T02:03:43.831Z,100173.66
2023-06-02T02:06:10.524Z,100172.31
2023-06-02T02:08:37.291Z,100172.22
2023-06-02T02:11:04.164Z,100181.91
2023-06-02T02:13:30.767Z,100179.06
2023-06-02T02:15:58.884Z,100178.75
2023-06-02T02:18:25.503Z,100185.00
2023-06-02T02:20:52.528Z,100184.59
2023-06-02T02:23:19.207Z,100180.66
2023-06-02T02:25:45.812Z,100182.13
2023-06-02T02:28:12.549Z,100182.78
2023-06-02T02:30:39.139Z,100188.47
2023-06-02T02:33:07.221Z,100180.19
2023-06-02T02:35:33.883Z,100185.25
2023-06-02T02:38:00.495Z,100184.66
2023-06-02T02:40:27.099Z,100181.06
2023-06-02T02:42:53.715Z,100189.69
2023-06-02T02:45:21.142Z,100192.16
2023-06-02T02:47:47.827Z,100187.28
2023-06-02T02:50:15.861Z,100186.41
2023-06-02T02:52:42.835Z,100193.97
2023-06-02T02:55:09.601Z,100191.47
2023-06-02T02:57:36.357Z,100197.38
2023-06-02T03:00:03.541Z,100196.78
2023-06-02T03:02:30.217Z,100201.00
2023-06-02T03:04:56.894Z,100204.44
2023-06-02T03:07:25.045Z,100203.47
2023-06-02T03:09:51.541Z,100209.03
2023-06-02T03:12:18.213Z,100211.38
2023-06-02T03:14:44.765Z,100210.38
2023-06-02T03:17:11.884Z,100216.31
2023-06-02T03:19:38.534Z,100208.13
2023-06-02T03:22:05.632Z,100218.06
2023-06-02T03:24:33.998Z,100212.44
2023-06-02T03:27:00.637Z,100220.84
2023-06-02T03:29:27.313Z,100215.22
2023-06-02T03:31:55.484Z,100218.09
2023-06-02T03:34:22.332Z,100218.97
2023-06-02T03:36:49.132Z,100222.03
2023-06-02T03:39:16.184Z,100212.44
2023-06-02T03:41:44.498Z,100215.59
2023-06-02T03:44:11.260Z,100215.41
2023-06-02T03:46:37.983Z,100209.78
2023-06-02T03:49:04.607Z,100210.34
2023-06-02T03:51:31.357Z,100216.94
2023-06-02T03:53:57.973Z,100212.88
2023-06-02T03:56:24.583Z,100215.22
2023-06-02T03:58:52.822Z,100210.31
2023-06-02T04:01:19.319Z,100217.00
2023-06-02T04:03:46.235Z,100221.75
2023-06-02T04:06:13.566Z,100225.72
2023-06-02T04:08:40.668Z,100234.47
2023-06-02T04:11:07.496Z,100221.78
2023-06-02T04:13:34.436Z,100234.53
2023-06-02T04:16:03.065Z,100234.94
2023-06-02T04:18:31.128Z,100238.78
2023-06-02T04:20:57.713Z,100238.69
2023-06-02T04:23:24.426Z,100246.50
2023-06-02T04:25:51.054Z,100243.03
2023-06-02T04:28:17.679Z,100244.09
2023-06-02T04:30:44.362Z,100247.50
2023-06-02T04:33:12.334Z,100245.53
2023-06-02T04:35:39.131Z,100243.19
2023-06-02T04:38:07.288Z,100243.38
2023-06-02T04:40:33.921Z,100238.19
2023-06-02T04:43:00.532Z,100238.88
2023-06-02T04:45:27.216Z,100237.28
2023-06-02T04:47:54.158Z,100246.22
2023-06-02T04:50:22.274Z,100234.78
2023-06-02T04:52:49.037Z,100236.63
2023-06-02T04:55:15.708Z,100233.00
2023-06-02T04:57:42.961Z,100228.63
2023-06-02T05:00:11.090Z,100236.81
2023-06-02T05:02:37.735Z,100222.56
2023-06-02T05:05:05.042Z,100230.78
2023-06-02T05:07:33.087Z,100240.16
2023-06-02T05:09:59.697Z,100243.03
2023-06-02T05:12:26.384Z,100229.84
2023-06-02T05:14:53.022Z,100237.00
2023-06-02T05:17:22.137Z,100233.41
2023-06-02T05:19:49.188Z,100236.94
2023-06-02T05:22:15.843Z,100234.66
2023-06-02T05:24:44.873Z,100240.53
2023-06-02T05:27:11.624Z,100232.06
2023-06-02T05:29:38.230Z,100241.19
2023-06-02T05:32:05.816Z,100248.97
2023-06-02T05:34:32.601Z,100245.38
2023-06-02T05:37:02.576Z,100238.97
2023-06-02T05:39:29.114Z,100240.53
2023-06-02T05:41:57.173Z,100247.44
2023-06-02T05:44:23.747Z,100239.53
2023-06-02T05:46:50.437Z,100235.66
2023-06-02T05:49:17.090Z,100234.75
2023-06-02T05:51:43.815Z,100240.53
2023-06-02T05:54:10.909Z,100245.78
2023-06-02T05:56:37.555Z,100242.97
2023-06-02T05:59:05.643Z,100239.19
2023-06-02T06:01:32.679Z,100244.75
2023-06-02T06:03:59.434Z,100246.19
2023-06-02T06:06:26.126Z,100242.59
2023-06-02T06:08:52.901Z,100240.41
2023-06-02T06:11:20.182Z,100232.28
2023-06-02T06:13:46.838Z,100245.41
2023-06-02T06:16:14.922Z,100241.22
2023-06-02T06:18:41.576Z,100242.81
2023-06-02T06:21:08.325Z,100247.16
2023-06-02T06:23:34.912Z,100256.81
2023-06-02T06:26:02.012Z,100247.34
2023-06-02T06:28:28.973Z,100247.28
2023-06-02T06:30:55.854Z,100243.25
2023-06-02T06:33:23.840Z,100244.25
2023-06-02T06:35:50.570Z,100248.19
2023-06-02T06:38:17.196Z,100251.66
2023-06-02T06:40:44.668Z,100248.72
2023-06-02T06:43:23.767Z,100255.97
2023-06-02T06:45:53.762Z,100255.28
2023-06-02T06:48:20.545Z,100251.88
2023-06-02T06:50:49.585Z,100259.44
2023-06-02T06:53:16.263Z,100260.34
2023-06-02T06:55:42.854Z,100252.13
2023-06-02T06:58:09.704Z,100258.38
2023-06-02T07:00:36.317Z,100258.94
2023-06-02T07:03:05.901Z,100258.16
2023-06-02T07:05:32.617Z,100253.16
2023-06-02T07:08:00.996Z,100254.00
2023-06-02T07:10:27.754Z,100256.97
2023-06-02T07:12:54.660Z,100268.88
2023-06-02T07:15:21.331Z,100266.50
2023-06-02T07:17:48.175Z,100264.31
2023-06-02T07:20:17.701Z,100272.00
2023-06-02T07:22:44.369Z,100264.94
2023-06-02T07:25:12.673Z,100263.00
2023-06-02T07:27:39.263Z,100255.94
2023-06-02T07:30:07.336Z,100258.59
2023-06-02T07:32:34.065Z,100262.66
2023-06-02T07:35:00.739Z,100263.53
2023-06-02T07:37:27.562Z,100265.03
2023-06-02T07:39:54.401Z,100261.75
2023-06-02T07:42:23.176Z,100265.66
2023-06-02T07:44:49.871Z,100263.84
2023-06-02T07:47:16.605Z,100259.22
2023-06-02T07:49:43.507Z,100256.78
2023-06-02T07:52:10.485Z,100262.63
2023-06-02T07:54:37.123Z,100257.25
2023-06-02T07:57:04.110Z,100259.13
2023-06-02T07:59:32.292Z,100265.25
2023-06-02T08:01:59.457Z,100262.44
2023-06-02T08:04:26.158Z,100263.66
2023-06-02T08:06:53.820Z,100268.56
2023-06-02T08:09:20.458Z,100268.31
2023-06-02T08:11:49.293Z,100258.06
2023-06-02T08:14:19.185Z,100249.78
2023-06-02T08:16:57.633Z,100266.69
2023-06-02T08:19:25.175Z,100256.06
2023-06-02T08:21:52.385Z,100264.66
2023-06-02T08:24:19.564Z,100267.09
2023-06-02T08:26:46.137Z,100261.03
2023-06-02T08:29:12.763Z,100262.69
2023-06-02T08:31:39.727Z,100261.69
2023-06-02T08:34:07.871Z,100268.56
2023-06-02T08:36:34.621Z,100268.34
2023-06-02T08:39:01.480Z,100262.03
2023-06-02T08:41:28.697Z,100263.09
2023-06-02T08:43:56.610Z,100268.06
2023-06-02T08:46:23.422Z,100265.56
2023-06-02T08:48:51.672Z,100261.91
2023-06-02T08:51:22.761Z,100273.41
2023-06-02T08:53:49.506Z,100275.06
2023-06-02T08:56:16.715Z,100267.91
2023-06-02T08:58:47.512Z,100257.25
2023-06-02T09:01:14.375Z,100256.97
2023-06-02T09:03:46.963Z,100263.66
2023-06-02T09:06:18.906Z,100259.97
2023-06-02T09:08:54.725Z,100258.81
2023-06-02T09:11:21.332Z,100266.50
2023-06-02T09:13:47.991Z,100266.19
2023-06-02T09:16:14.746Z,100276.75
2023-06-02T09:18:55.244Z,100270.50
2023-06-02T09:21:26.583Z,100262.16
2023-06-02T09:24:11.288Z,100268.69
2023-06-02T09:26:48.639Z,100257.22
2023-06-02T09:29:15.360Z,100253.53
2023-06-02T09:31:46.843Z,100250.59
2023-06-02T09:34:14.186Z,100259.88
2023-06-02T09:36:41.086Z,100257.31
2023-06-02T09:39:09.277Z,100266.31
2023-06-02T09:41:35.956Z,100254.16
2023-06-02T09:44:02.639Z,100244.22
2023-06-02T09:46:29.455Z,100248.03
2023-06-02T09:48:57.757Z,100257.44
2023-06-02T09:51:25.812Z,100247.19
2023-06-02T09:53:53.101Z,100261.63
2023-06-02T09:56:22.153Z,100251.44
2023-06-02T09:58:49.410Z,100252.81
2023-06-02T10:01:16.609Z,100246.16
2023-06-02T10:03:43.722Z,100241.38
2023-06-02T10:06:20.611Z,100252.06
2023-06-02T10:09:00.206Z,100238.75
2023-06-02T10:11:35.735Z,100244.97
2023-06-02T10:14:18.226Z,100244.19
2023-06-02T10:16:58.178Z,100236.50
2023-06-02T10:20:05.657Z,100234.22
2023-06-02T10:22:46.594Z,100244.94
2023-06-02T10:25:22.151Z,100230.09
2023-06-02T10:27:51.306Z,100244.94
2023-06-02T10:30:21.060Z,100236.25
2023-06-02T10:32:49.348Z,100225.06
2023-06-02T10:35:16.886Z,100229.47
2023-06-02T10:37:43.541Z,100236.19
2023-06-02T10:40:10.643Z,100230.44
2023-06-02T10:42:38.680Z,100224.50
2023-06-02T10:45:44.854Z,100227.63
2023-06-02T10:48:38.407Z,100218.06
2023-06-02T10:51:06.144Z,100227.22
2023-06-02T10:53:33.474Z,100224.53
2023-06-02T10:56:35.140Z,100227.84
2023-06-02T10:59:01.849Z,100216.09
2023-06-02T11:01:48.945Z,100223.06
2023-06-02T11:04:27.116Z,100214.69
2023-06-02T11:07:18.059Z,100207.53
2023-06-02T11:09:45.439Z,100215.34
2023-06-02T11:12:12.478Z,100209.16
2023-06-02T11:15:18.208Z,100210.44
2023-06-02T11:17:46.313Z,100206.97
2023-06-02T11:20:21.097Z,100208.69
2023-06-02T11:22:48.198Z,100209.47
2023-06-02T11:25:16.575Z,100210.56
2023-06-02T11:27:44.766Z,100201.94
2023-06-02T11:30:13.798Z,100202.50
2023-06-02T11:32:40.648Z,100218.41
2023-06-02T11:35:15.806Z,100204.53
2023-06-02T11:38:01.486Z,100208.88
2023-06-02T11:40:30.983Z,100211.34
2023-06-02T11:49:24.852Z,100206.47
2023-06-02T11:52:08.209Z,100211.41
2023-06-02T11:54:49.614Z,100210.25
2023-06-02T11:57:26.046Z,100218.59
2023-06-02T12:00:05.943Z,100201.50
2023-06-02T12:02:33.193Z,100194.91
2023-06-02T12:04:59.953Z,100202.53
2023-06-02T12:07:28.516Z,100188.44
2023-06-02T12:09:57.172Z,100191.97
2023-06-02T12:12:23.937Z,100191.25
2023-06-02T12:14:50.715Z,100186.31
2023-06-02T12:17:17.922Z,100188.47
2023-06-02T12:19:44.660Z,100199.88
2023-06-02T12:22:11.943Z,100194.50
2023-06-02T12:24:39.133Z,100192.16
2023-06-02T12:27:08.349Z,100194.47
2023-06-02T12:29:36.068Z,100191.72
2023-06-02T12:32:05.365Z,100192.06
2023-06-02T12:34:32.415Z,100176.31
2023-06-02T12:36:59.119Z,100201.47
2023-06-02T12:39:25.892Z,100180.16
2023-06-02T12:41:52.592Z,100174.44
2023-06-02T12:44:20.735Z,100180.16
2023-06-02T12:46:47.860Z,100183.97
2023-06-02T12:49:14.799Z,100191.56
2023-06-02T12:52:23.170Z,100191.16
2023-06-02T12:54:49.831Z,100184.56
2023-06-02T12:57:16.465Z,100184.41
2023-06-02T12:59:44.587Z,100185.78
2023-06-02T13:02:11.641Z,100193.72
2023-06-02T13:04:38.553Z,100194.16
2023-06-02T13:07:07.147Z,100193.00
2023-06-02T13:09:33.784Z,100194.47
2023-06-02T13:12:00.529Z,100185.50
2023-06-02T13:14:27.155Z,100190.59
2023-06-02T13:16:55.283Z,100199.81
2023-06-02T13:19:22.444Z,100182.69
2023-06-02T13:21:49.653Z,100199.63
2023-06-02T13:24:16.319Z,100216.41
2023-06-02T13:26:43.287Z,100195.19
2023-06-02T13:29:09.922Z,100192.66
2023-06-02T13:31:36.654Z,100195.47
2023-06-02T13:34:05.265Z,100194.91
2023-06-02T13:36:34.976Z,100200.88
2023-06-02T13:39:01.715Z,100187.53
2023-06-02T13:41:31.566Z,100196.63
2023-06-02T13:43:58.714Z,100193.59
2023-06-02T13:46:26.330Z,100201.44
2023-06-02T13:48:57.395Z,100194.03
2023-06-02T13:51:25.524Z,100189.00
2023-06-02T13:53:52.320Z,100193.31
2023-06-02T13:57:15.139Z,100183.31
2023-06-02T13:59:22.133Z,100187.53
2023-06-02T14:01:49.040Z,100175.06
2023-06-02T14:04:15.885Z,100188.53
2023-06-02T14:06:43.774Z,100196.88
2023-06-02T14:09:10.378Z,100191.88
2023-06-02T14:11:37.106Z,100195.66
2023-06-02T14:14:04.165Z,100184.78
2023-06-02T14:16:30.840Z,100188.03
2023-06-02T14:18:57.951Z,100194.53
2023-06-02T14:21:26.100Z,100176.09
2023-06-02T14:23:54.205Z,100183.88
2023-06-02T14:26:21.027Z,100184.91
2023-06-02T14:28:47.962Z,100173.59
2023-06-02T14:31:14.709Z,100179.34
2023-06-02T14:33:41.750Z,100181.41
2023-06-02T14:36:09.328Z,100175.09
2023-06-02T14:38:35.929Z,100173.47
2023-06-02T14:41:04.337Z,100167.41
2023-06-02T14:43:30.928Z,100169.00
2023-06-02T14:45:57.549Z,100191.06
2023-06-02T14:48:24.169Z,100174.88
2023-06-02T14:50:50.797Z,100176.88
2023-06-02T14:53:17.390Z,100176.84
2023-06-02T14:55:44.128Z,100175.31
2023-06-02T14:58:12.100Z,100164.88
2023-06-02T15:00:38.999Z,100159.38
2023-06-02T15:03:05.717Z,100152.41
2023-06-02T15:05:32.365Z,100168.81
2023-06-02T15:07:59.017Z,100158.34
2023-06-02T15:10:25.635Z,100165.22
2023-06-02T15:12:52.263Z,100160.28
2023-06-02T15:15:20.376Z,100151.44
2023-06-02T15:17:47.097Z,100150.63
2023-06-02T15:20:13.787Z,100170.38
2023-06-02T15:22:40.379Z,100168.66
2023-06-02T15:25:07.711Z,100165.50
2023-06-02T15:27:34.720Z,100156.59
2023-06-02T15:30:01.479Z,100153.09
2023-06-02T15:32:29.627Z,100144.19
2023-06-02T15:34:56.360Z,100147.34
2023-06-02T15:37:23.436Z,100159.19
2023-06-02T15:39:50.156Z,100158.09
2023-06-02T15:42:16.755Z,100157.84
2023-06-02T15:44:43.533Z,100140.97
2023-06-02T15:47:10.301Z,100152.88
2023-06-02T15:49:38.355Z,100159.03
2023-06-02T15:52:06.232Z,100144.91
2023-06-02T15:54:32.921Z,100147.03
2023-06-02T15:56:59.649Z,100138.41
2023-06-02T15:59:26.255Z,100133.53
2023-06-02T16:01:53.350Z,100132.84
2023-06-02T16:04:20.193Z,100136.16
2023-06-02T16:06:48.214Z,100148.63
2023-06-02T16:09:15.374Z,100144.06
2023-06-02T16:11:41.979Z,100136.28
2023-06-02T16:14:08.853Z,100145.00
2023-06-02T16:16:35.780Z,100130.31
2023-06-02T16:19:02.405Z,100133.72
2023-06-02T16:21:29.139Z,100130.31
2023-06-02T16:23:57.259Z,100134.56
2023-06-02T16:26:24.151Z,100136.84
2023-06-02T16:28:51.143Z,100135.72
2023-06-02T16:31:20.672Z,100129.91
2023-06-02T16:33:47.953Z,100121.38
2023-06-02T16:36:14.631Z,100131.00
2023-06-02T16:38:41.275Z,100131.34
2023-06-02T16:41:09.512Z,100128.97
2023-06-02T16:43:36.456Z,100117.34
2023-06-02T16:46:06.405Z,100112.41
2023-06-02T16:48:35.971Z,100123.38
2023-06-02T16:51:03.088Z,100121.72
2023-06-02T16:53:44.845Z,100114.78
2023-06-02T16:59:43.339Z,100116.88
2023-06-02T17:05:22.220Z,100112.84
2023-06-02T17:11:24.173Z,100103.69
2023-06-02T17:14:34.305Z,100111.84
2023-06-02T17:17:35.541Z,100100.00
2023-06-02T17:23:27.011Z,100118.03
2023-06-02T17:25:55.683Z,100104.63
2023-06-02T17:41:20.205Z,100117.59
2023-06-02T17:44:26.462Z,100134.00
2023-06-02T17:47:28.904Z,100126.28
2023-06-02T17:50:34.541Z,100119.25
2023-06-02T17:53:01.440Z,100124.97
2023-06-02T17:55:28.220Z,100124.13
2023-06-02T17:57:57.728Z,100134.84
2023-06-02T18:00:36.947Z,100133.28
2023-06-02T18:03:04.089Z,100127.41
2023-06-02T18:05:30.864Z,100136.16
2023-06-02T18:07:57.493Z,100128.66
2023-06-02T18:10:24.570Z,100132.91
2023-06-02T18:12:53.280Z,100131.25
2023-06-02T18:15:21.660Z,100129.03
2023-06-02T18:18:01.539Z,100136.19
2023-06-02T18:20:42.610Z,100117.66
2023-06-02T18:23:28.948Z,100136.59
2023-06-02T18:25:55.706Z,100114.56
2023-06-02T18:28:26.869Z,100120.09
2023-06-02T18:30:55.361Z,100114.47
2023-06-02T18:33:50.642Z,100125.13
2023-06-02T18:36:17.676Z,100116.00
2023-06-02T18:38:47.221Z,100116.66
2023-06-02T18:41:17.524Z,100108.69
2023-06-02T18:43:55.882Z,100102.03
2023-06-02T18:46:59.918Z,100111.91
2023-06-02T18:49:50.347Z,100121.78
2023-06-02T18:52:33.574Z,100118.34
2023-06-02T18:55:00.407Z,100116.25
2023-06-02T18:57:27.341Z,100109.75
2023-06-02T18:59:53.990Z,100109.09
2023-06-02T19:02:20.792Z,100117.41
2023-06-02T19:04:49.010Z,100121.16
2023-06-02T19:07:15.707Z,100117.94
2023-06-02T19:09:42.622Z,100122.19
2023-06-02T19:16:17.206Z,100125.94
2023-06-02T19:19:03.611Z,100125.53
2023-06-02T19:21:39.311Z,100119.59
2023-06-02T19:27:31.332Z,100133.94
2023-06-02T19:33:14.644Z,100130.84
2023-06-02T19:35:58.595Z,100121.25
2023-06-02T19:38:26.851Z,100122.78
2023-06-02T19:41:10.041Z,100135.75
2023-06-02T19:44:24.756Z,100134.09
2023-06-02T19:50:26.079Z,100126.03
2023-06-02T19:53:10.590Z,100131.03
2023-06-02T19:55:38.769Z,100138.00
2023-06-02T19:58:11.402Z,100140.63
2023-06-02T20:00:58.177Z,100137.66
2023-06-02T20:03:25.092Z,100131.53
2023-06-02T20:05:51.817Z,100146.28
2023-06-02T20:08:18.612Z,100136.88
2023-06-02T20:10:46.711Z,100143.03
2023-06-02T20:13:15.842Z,100139.41
2023-06-02T20:16:30.174Z,100152.34
2023-06-02T20:19:27.064Z,100143.38
2023-06-02T20:21:51.879Z,100152.34
2023-06-02T20:27:23.552Z,100149.22
2023-06-02T20:29:52.364Z,100159.56
2023-06-02T20:36:15.385Z,100152.25
2023-06-02T20:44:54.829Z,100166.03
2023-06-02T20:47:21.538Z,100164.06
2023-06-02T20:49:48.166Z,100173.72
2023-06-02T20:52:14.893Z,100168.16
2023-06-02T20:54:41.845Z,100163.91
2023-06-02T20:57:08.467Z,100171.22
2023-06-02T20:59:35.308Z,100169.25
2023-06-02T21:02:03.743Z,100168.88
2023-06-02T21:04:30.488Z,100183.16
2023-06-02T21:06:57.157Z,100178.44
2023-06-02T21:09:24.312Z,100175.47
2023-06-02T21:11:51.029Z,100172.97
2023-06-02T21:14:17.628Z,100190.34
2023-06-02T21:16:44.475Z,100187.75
2023-06-02T21:19:12.544Z,100187.75
2023-06-02T21:21:39.211Z,100187.00
2023-06-02T21:24:06.159Z,100189.63
2023-06-02T21:26:32.882Z,100183.00
2023-06-02T21:28:59.463Z,100195.22
2023-06-02T21:31:26.356Z,100193.94
2023-06-02T21:33:52.979Z,100188.56
2023-06-02T21:36:21.084Z,100187.69
2023-06-02T21:38:47.788Z,100185.72
2023-06-02T21:41:14.436Z,100184.56
2023-06-02T21:43:41.158Z,100181.59
2023-06-02T21:46:07.816Z,100185.97
2023-06-02T21:48:34.566Z,100186.16
2023-06-02T21:51:01.173Z,100183.88
2023-06-02T21:53:29.198Z,100178.63
2023-06-02T21:55:56.085Z,100194.84
2023-06-02T21:58:22.756Z,100189.59
2023-06-02T22:00:49.575Z,100192.88
2023-06-02T22:03:16.349Z,100195.28
2023-06-02T22:05:43.097Z,100193.66
2023-06-02T22:08:09.765Z,100189.34
2023-06-02T22:10:37.862Z,100189.72
2023-06-02T22:13:04.522Z,100195.22
2023-06-02T22:15:31.228Z,100195.59
2023-06-02T22:17:57.956Z,100189.22
2023-06-02T22:20:24.702Z,100196.28
2023-06-02T22:22:51.289Z,100198.38
2023-06-02T22:25:17.944Z,100195.75
2023-06-02T22:27:45.930Z,100205.47
2023-06-02T22:30:13.345Z,100204.38
2023-06-02T22:32:40.008Z,100202.09
2023-06-02T22:35:07.350Z,100199.94
2023-06-02T22:37:34.054Z,100198.25
2023-06-02T22:40:00.772Z,100199.72
2023-06-02T22:42:27.442Z,100201.91
2023-06-02T22:44:55.389Z,100203.97
2023-06-02T22:47:22.284Z,100199.13
2023-06-02T22:49:48.881Z,100197.06
2023-06-02T22:52:15.498Z,100204.97
2023-06-02T22:54:42.116Z,100203.66
2023-06-02T22:57:08.704Z,100198.63
2023-06-02T22:59:35.739Z,100201.47
2023-06-02T23:02:03.844Z,100205.19
2023-06-02T23:04:30.507Z,100195.75
2023-06-02T23:06:57.633Z,100200.16
2023-06-02T23:09:24.257Z,100210.78
2023-06-02T23:11:50.865Z,100206.72
2023-06-02T23:14:17.756Z,100201.28
2023-06-02T23:16:44.355Z,100213.50
2023-06-02T23:19:12.321Z,100214.41
2023-06-02T23:21:39.071Z,100216.69
2023-06-02T23:24:07.534Z,100219.09
2023-06-02T23:26:34.253Z,100222.84
2023-06-02T23:29:00.862Z,100217.25
2023-06-02T23:31:27.457Z,100217.34
2023-06-02T23:33:54.073Z,100211.47
2023-06-02T23:36:22.200Z,100217.03
2023-06-02T23:38:48.831Z,100224.03
2023-06-02T23:41:15.424Z,100222.28
2023-06-02T23:43:42.361Z,100225.78
2023-06-02T23:46:09.022Z,100227.09
2023-06-02T23:48:35.631Z,100217.03
2023-06-02T23:51:02.810Z,100224.03
2023-06-02T23:53:31.113Z,100226.63
2023-06-02T23:55:57.697Z,100223.56
2023-06-02T23:58:24.353Z,100227.84
